עמוד ראשי
METAR-TAF:

METAR-TAF

שדות תעופה :

Lar, איראן

קו רוחב: 27-40-26N, קו אורך: 054-22-53E, גובה: 792מטר

תצפית מזג אוויר נוכחית

הדו"ח נערך לפני 1 שעות ו 5דקות, בשעה 20:00 UTC
רוח רגועה
טמפרטורת 29 צלסיוס
לחות 23%
לחץ 1003 hPa
ראות 10 קילומטר או יותר
ללא עננים שבסיסם נמוך מ 5000 רגל או קומולונימבוס

METAR: OISL 132000Z 00000KT CAVOK 29/06 Q1003 A2963

זמן: 01:35 (21:05 UTC)

תחזית

הדו"ח נערך לפני 3 שעות ו 35דקות, בשעה 17:30 UTC
תחזית בתוקף מ 13 ב 18 UTC עד 14 ב 24 UTC
רוח 6קשר מכיוון מערב
ראות: 8000מטר
זמנית מ -
14 ב 09 UTC עד 14 ב 16 UTC
רוח 13קשר מכיוון צפון-מערב עם משבים עד 23קשר
מעט עננים בגובה 3500רגל , קומולונימבוס.
עננים פזורים בגובה 4000רגל , קומולוס מיגדלי.

TAF: OISL 131730Z 1318/1424 26006KT 8000 NSC TEMPO 1409/1416 31013G23KT FEW035CB SCT040TCU

תצפיות ותחזיות מזג אוויר לגבי יותר מ- 4,000 שדות תעופה ברחבי העולם. דוחות METAR ו- TAF.

התחנות הזמינות מסומנות בנקודות צהובות ואדומות על גבי המפה.

העבר את העכבר לנקודה הצבעונית על מנת לראות את שם התחנה.

לאחר מכן, לחץ כדי לראות את תוכן ואת תחזיות מזג האוויר.

כדי לשנות את המפה: לחץ על הכפתורים הירוקים עם הפלוס השחור כדי להתקרב; על הכפתור הירוק עם המקף כדי להתרחק; או בחיצים הירוקים למפות סמוכות.


METAR-TAF: